Clipper Saga — LAFY6 — position and weather

sailwx.info

Track history (hours):
 
Tides and Currents Weather Stations Pressure Air Temp Water Temp Dewpoint Dewpoint Depression Visibility Wind Speed Wind Dir Waves Ship Positions

Clipper Saga

Last reported at 2016-Sep-27 00:33 UTC. Time now 2016-Sep-27 08:43 UTC.
Position N 53°44' W 000°15'.

Length 89 m; draft 5.9 m.

Type: Ship (hazmat cat C). MMSI: 246657008.

Date/timePositionNaut miles runAvg speedWind from/ knotsBaromVisibWave heightAir tempDewpointWater temp
2016-Sep-27 00:33N 53°44' W 000°15'0 0.0
2016-Sep-26 20:33N 53°44' W 000°15'6 6.2
2016-Sep-26 19:34N 53°38' W 000°10'24 5.9
2016-Sep-26 15:33N 53°33' E 000°29'25 3.6
2016-Sep-26 08:33N 53°19' E 001°03'116 7.1
2016-Sep-25 16:13N 52°08' E 003°35'811.4
2016-Sep-25 15:33N 52°04' E 003°46'1110.9
2016-Sep-25 14:33N 51°60' E 004°02'13 6.7
2016-Sep-25 12:34N 51°53' E 004°20'0 0.0
2016-Sep-25 11:31N 51°53' E 004°20'0 0.0
2016-Sep-25 10:31N 51°53' E 004°20'0 0.0
2016-Sep-25 09:31N 51°53' E 004°20'0 0.0
2016-Sep-25 07:32N 51°53' E 004°20'0 0.0
2016-Sep-25 04:30N 51°53' E 004°20'0 0.0
2016-Sep-25 00:34N 51°53' E 004°20'0 0.0
2016-Sep-24 22:33N 51°53' E 004°20'0 0.0
2016-Sep-24 21:25N 51°53' E 004°20'0 0.0
2016-Sep-24 19:33N 51°53' E 004°20'0 0.0
2016-Sep-24 18:30N 51°53' E 004°20'0 0.0
2016-Sep-24 16:33N 51°53' E 004°20'0 0.0
2016-Sep-24 14:32N 51°53' E 004°20'0 0.0
2016-Sep-24 12:29N 51°53' E 004°20'2 1.2
2016-Sep-24 10:32N 51°53' E 004°17'0 0.0
2016-Sep-24 09:31N 51°53' E 004°17'0 0.0
2016-Sep-24 03:31N 51°53' E 004°17'0 0.0
2016-Sep-24 02:31N 51°53' E 004°17'0 0.0
2016-Sep-24 01:28N 51°53' E 004°17'0 0.0
2016-Sep-24 00:31N 51°53' E 004°17'0 0.0
2016-Sep-23 19:31N 51°53' E 004°17'0 0.0
2016-Sep-23 17:28N 51°53' E 004°17'0 0.0
2016-Sep-23 16:25N 51°53' E 004°17'1 0.7
2016-Sep-23 15:33N 51°53' E 004°17'18 9.0
2016-Sep-23 13:33N 52°00' E 003°50'10 2.5
2016-Sep-23 09:33N 52°08' E 003°40'0 0.0
2016-Sep-23 06:27N 52°08' E 003°40'0 0.0
2016-Sep-23 00:21N 52°08' E 003°40'24120.4
2016-Sep-22 12:31N 55°09' W 000°50'3 0.4
2016-Sep-22 04:33N 55°11' W 000°53'0 0.5
2016-Sep-22 03:33N 55°11' W 000°52'9 3.1
2016-Sep-22 00:34N 55°18' W 001°01'5611.1
2016-Sep-21 19:33N 55°58' W 002°10'3511.6
2016-Sep-21 16:33N 56°02' W 003°12'3 0.1
2016-Sep-20 14:33N 56°02' W 003°07'0 0.0
2016-Sep-20 13:33N 56°02' W 003°07'0 0.0
2016-Sep-20 10:33N 56°02' W 003°07'0 0.0
2016-Sep-20 08:33N 56°02' W 003°07'0 0.1
2016-Sep-20 07:33N 56°02' W 003°06'0 0.0
2016-Sep-20 06:33N 56°02' W 003°06'0 0.0
2016-Sep-20 02:33N 56°02' W 003°06'0 0.0
2016-Sep-19 23:33N 56°02' W 003°07'0 0.0
2016-Sep-19 19:33N 56°02' W 003°07'0 0.0
2016-Sep-19 18:33N 56°02' W 003°07'0 0.0
2016-Sep-19 16:30N 56°02' W 003°07'1 0.5
2016-Sep-19 14:34N 56°02' W 003°05'1212.3
2016-Sep-19 13:34N 56°07' W 002°44'1313.0
2016-Sep-19 12:34N 56°10' W 002°22'1312.7
2016-Sep-19 11:34N 56°13' W 001°60'40512.3
2016-Sep-18 02:34N 57°46' E 010°03'1211.9
2016-Sep-18 01:33N 57°48' E 010°25'1212.5
2016-Sep-18 00:33N 57°48' E 010°48'2713.4
2016-Sep-17 22:34N 57°36' E 011°33'4 3.9
2016-Sep-17 21:32N 57°36' E 011°40'0 0.1
2016-Sep-17 20:32N 57°35' E 011°40'0 0.0
2016-Sep-17 19:14N 57°36' E 011°40'51 8.9
2016-Sep-17 13:33N 58°19' E 010°53'1111.2
2016-Sep-17 12:33N 58°30' E 010°46'2211.1
2016-Sep-17 10:33N 58°52' E 010°39'1110.7
2016-Sep-17 09:33N 59°02' E 010°46'8 8.0
2016-Sep-17 08:33N 59°07' E 010°58'9 9.3
2016-Sep-17 07:34N 59°16' E 011°02'  
Track history (hours):
 
Tides and Currents Weather Stations Pressure Air Temp Water Temp Dewpoint Dewpoint Depression Visibility Wind Speed Wind Dir Waves Ship Positions

Clipper Saga

Last reported at 2016-Sep-27 00:33 UTC. Time now 2016-Sep-27 08:43 UTC.
Position N 53°44' W 000°15'.

Length 89 m; draft 5.9 m.

Type: Ship (hazmat cat C). MMSI: 246657008.

Date/timePositionNaut miles runAvg speedWind from/ knotsBaromVisibWave heightAir tempDewpointWater temp
2016-Sep-27 00:33N 53°44' W 000°15'0 0.0
2016-Sep-26 20:33N 53°44' W 000°15'6 6.2
2016-Sep-26 19:34N 53°38' W 000°10'24 5.9
2016-Sep-26 15:33N 53°33' E 000°29'25 3.6
2016-Sep-26 08:33N 53°19' E 001°03'116 7.1
2016-Sep-25 16:13N 52°08' E 003°35'811.4
2016-Sep-25 15:33N 52°04' E 003°46'1110.9
2016-Sep-25 14:33N 51°60' E 004°02'13 6.7
2016-Sep-25 12:34N 51°53' E 004°20'0 0.0
2016-Sep-25 11:31N 51°53' E 004°20'0 0.0
2016-Sep-25 10:31N 51°53' E 004°20'0 0.0
2016-Sep-25 09:31N 51°53' E 004°20'0 0.0
2016-Sep-25 07:32N 51°53' E 004°20'0 0.0
2016-Sep-25 04:30N 51°53' E 004°20'0 0.0
2016-Sep-25 00:34N 51°53' E 004°20'0 0.0
2016-Sep-24 22:33N 51°53' E 004°20'0 0.0
2016-Sep-24 21:25N 51°53' E 004°20'0 0.0
2016-Sep-24 19:33N 51°53' E 004°20'0 0.0
2016-Sep-24 18:30N 51°53' E 004°20'0 0.0
2016-Sep-24 16:33N 51°53' E 004°20'0 0.0
2016-Sep-24 14:32N 51°53' E 004°20'0 0.0
2016-Sep-24 12:29N 51°53' E 004°20'2 1.2
2016-Sep-24 10:32N 51°53' E 004°17'0 0.0
2016-Sep-24 09:31N 51°53' E 004°17'0 0.0
2016-Sep-24 03:31N 51°53' E 004°17'0 0.0
2016-Sep-24 02:31N 51°53' E 004°17'0 0.0
2016-Sep-24 01:28N 51°53' E 004°17'0 0.0
2016-Sep-24 00:31N 51°53' E 004°17'0 0.0
2016-Sep-23 19:31N 51°53' E 004°17'0 0.0
2016-Sep-23 17:28N 51°53' E 004°17'0 0.0
2016-Sep-23 16:25N 51°53' E 004°17'1 0.7
2016-Sep-23 15:33N 51°53' E 004°17'18 9.0
2016-Sep-23 13:33N 52°00' E 003°50'10 2.5
2016-Sep-23 09:33N 52°08' E 003°40'0 0.0
2016-Sep-23 06:27N 52°08' E 003°40'0 0.0
2016-Sep-23 00:21N 52°08' E 003°40'24120.4
2016-Sep-22 12:31N 55°09' W 000°50'3 0.4
2016-Sep-22 04:33N 55°11' W 000°53'0 0.5
2016-Sep-22 03:33N 55°11' W 000°52'9 3.1
2016-Sep-22 00:34N 55°18' W 001°01'5611.1
2016-Sep-21 19:33N 55°58' W 002°10'3511.6
2016-Sep-21 16:33N 56°02' W 003°12'3 0.1
2016-Sep-20 14:33N 56°02' W 003°07'0 0.0
2016-Sep-20 13:33N 56°02' W 003°07'0 0.0
2016-Sep-20 10:33N 56°02' W 003°07'0 0.0
2016-Sep-20 08:33N 56°02' W 003°07'0 0.1
2016-Sep-20 07:33N 56°02' W 003°06'0 0.0
2016-Sep-20 06:33N 56°02' W 003°06'0 0.0
2016-Sep-20 02:33N 56°02' W 003°06'0 0.0
2016-Sep-19 23:33N 56°02' W 003°07'0 0.0
2016-Sep-19 19:33N 56°02' W 003°07'0 0.0
2016-Sep-19 18:33N 56°02' W 003°07'0 0.0
2016-Sep-19 16:30N 56°02' W 003°07'1 0.5
2016-Sep-19 14:34N 56°02' W 003°05'1212.3
2016-Sep-19 13:34N 56°07' W 002°44'1313.0
2016-Sep-19 12:34N 56°10' W 002°22'1312.7
2016-Sep-19 11:34N 56°13' W 001°60'40512.3
2016-Sep-18 02:34N 57°46' E 010°03'1211.9
2016-Sep-18 01:33N 57°48' E 010°25'1212.5
2016-Sep-18 00:33N 57°48' E 010°48'2713.4
2016-Sep-17 22:34N 57°36' E 011°33'4 3.9
2016-Sep-17 21:32N 57°36' E 011°40'0 0.1
2016-Sep-17 20:32N 57°35' E 011°40'0 0.0
2016-Sep-17 19:14N 57°36' E 011°40'51 8.9
2016-Sep-17 13:33N 58°19' E 010°53'1111.2
2016-Sep-17 12:33N 58°30' E 010°46'2211.1
2016-Sep-17 10:33N 58°52' E 010°39'1110.7
2016-Sep-17 09:33N 59°02' E 010°46'8 8.0
2016-Sep-17 08:33N 59°07' E 010°58'9 9.3
2016-Sep-17 07:34N 59°16' E 011°02'  

Dump ship's entire track history